createdAt,value
2018-06-05T00:00:19.658Z,19.39
2018-06-05T00:01:20.387Z,19.39
2018-06-05T00:02:21.101Z,19.31
2018-06-05T00:03:21.828Z,19.33
2018-06-05T00:04:22.543Z,19.36
2018-06-05T00:05:23.257Z,19.31
2018-06-05T00:06:23.973Z,19.29
2018-06-05T00:07:24.687Z,19.33
2018-06-05T00:08:25.410Z,19.36
2018-06-05T00:09:26.138Z,19.27
2018-06-05T00:10:26.860Z,19.27
2018-06-05T00:11:27.578Z,19.24
2018-06-05T00:12:28.293Z,19.22
2018-06-05T00:13:29.009Z,19.30
2018-06-05T00:14:29.735Z,19.11
2018-06-05T00:15:30.453Z,19.26
2018-06-05T00:16:31.166Z,19.15
2018-06-05T00:17:31.898Z,19.15
2018-06-05T00:18:32.620Z,19.15
2018-06-05T00:19:33.334Z,19.12
2018-06-05T00:20:34.050Z,19.14
2018-06-05T00:21:34.765Z,19.02
2018-06-05T00:22:35.480Z,19.12
2018-06-05T00:23:36.196Z,18.99
2018-06-05T00:24:36.911Z,19.11
2018-06-05T00:25:37.626Z,19.04
2018-06-05T00:26:38.341Z,19.04
2018-06-05T00:27:39.073Z,19.11
2018-06-05T00:28:39.785Z,19.00
2018-06-05T00:29:40.501Z,18.99
2018-06-05T00:30:41.215Z,18.93
2018-06-05T00:31:41.930Z,18.92
2018-06-05T00:32:42.647Z,18.92
2018-06-05T00:33:43.361Z,18.92
2018-06-05T00:34:44.077Z,18.93
2018-06-05T00:35:44.803Z,18.93
2018-06-05T00:36:45.515Z,18.84
2018-06-05T00:37:46.230Z,18.89
2018-06-05T00:38:46.942Z,18.78
2018-06-05T00:39:47.656Z,18.80
2018-06-05T00:40:48.369Z,18.78
2018-06-05T00:41:49.084Z,18.86
2018-06-05T00:42:49.797Z,18.80
2018-06-05T00:43:50.513Z,18.84
2018-06-05T00:44:51.226Z,18.78
2018-06-05T00:45:51.941Z,18.80
2018-06-05T00:46:52.656Z,18.74
2018-06-05T00:47:53.381Z,18.77
2018-06-05T00:48:54.097Z,18.75
2018-06-05T00:49:54.812Z,18.70
2018-06-05T00:50:55.538Z,18.71
2018-06-05T00:51:56.254Z,18.74
2018-06-05T00:52:56.967Z,18.73
2018-06-05T00:53:57.695Z,18.75
2018-06-05T00:54:58.410Z,18.77
2018-06-05T00:55:59.125Z,18.77
2018-06-05T00:56:59.870Z,18.71
2018-06-05T00:58:00.594Z,18.62
2018-06-05T00:59:01.309Z,18.65
2018-06-05T01:00:02.034Z,18.73
2018-06-05T01:01:02.749Z,18.74
2018-06-05T01:02:03.462Z,18.73
2018-06-05T01:03:04.190Z,18.80
2018-06-05T01:04:04.903Z,18.78
2018-06-05T01:05:05.620Z,18.75
2018-06-05T01:06:06.347Z,18.78
2018-06-05T01:07:07.061Z,18.74
2018-06-05T01:08:07.781Z,18.65
2018-06-05T01:09:08.494Z,18.74
2018-06-05T01:10:09.210Z,18.74
2018-06-05T01:11:09.935Z,18.60
2018-06-05T01:12:10.648Z,18.71
2018-06-05T01:13:11.363Z,18.75
2018-06-05T01:14:12.079Z,18.71
2018-06-05T01:15:12.803Z,18.70
2018-06-05T01:16:13.518Z,18.63
2018-06-05T01:17:14.232Z,18.73
2018-06-05T01:18:14.947Z,18.70
2018-06-05T01:19:15.661Z,18.73
2018-06-05T01:20:16.375Z,18.74
2018-06-05T01:21:17.089Z,18.73
2018-06-05T01:22:17.804Z,18.73
2018-06-05T01:23:18.519Z,18.66
2018-06-05T01:24:19.233Z,18.70
2018-06-05T01:25:19.948Z,18.75
2018-06-05T01:26:20.665Z,18.75
2018-06-05T01:27:21.392Z,18.68
2018-06-05T01:28:22.118Z,18.62
2018-06-05T01:29:22.831Z,18.68
2018-06-05T01:30:23.556Z,18.68
2018-06-05T01:31:24.282Z,18.71
2018-06-05T01:32:25.007Z,18.56
2018-06-05T01:33:25.724Z,18.55
2018-06-05T01:34:26.440Z,18.60
2018-06-05T01:35:27.154Z,18.58
2018-06-05T01:36:27.869Z,18.58
2018-06-05T01:37:28.584Z,18.58
2018-06-05T01:38:29.302Z,18.44
2018-06-05T01:39:30.023Z,18.56
2018-06-05T01:40:30.749Z,18.58
2018-06-05T01:41:31.462Z,18.59
2018-06-05T01:42:32.175Z,18.62
2018-06-05T01:43:32.900Z,18.59
2018-06-05T01:44:33.628Z,18.43
2018-06-05T01:45:34.341Z,18.55
2018-06-05T01:46:35.056Z,18.58
2018-06-05T01:47:35.769Z,18.50
2018-06-05T01:48:36.486Z,18.38
2018-06-05T01:49:37.200Z,18.49
2018-06-05T01:50:37.914Z,18.38
2018-06-05T01:51:38.628Z,18.37
2018-06-05T01:52:39.351Z,18.35
2018-06-05T01:53:40.076Z,18.41
2018-06-05T01:54:40.801Z,18.38
2018-06-05T01:55:41.528Z,18.44
2018-06-05T01:56:42.242Z,18.41
2018-06-05T01:57:42.967Z,18.49
2018-06-05T01:58:43.680Z,18.43
2018-06-05T01:59:44.393Z,18.43
2018-06-05T02:00:45.105Z,18.37
2018-06-05T02:01:45.819Z,18.33
2018-06-05T02:02:46.534Z,18.34
2018-06-05T02:03:47.246Z,18.37
2018-06-05T02:04:47.959Z,18.31
2018-06-05T02:05:48.686Z,18.29
2018-06-05T02:06:49.400Z,18.23
2018-06-05T02:07:50.126Z,18.22
2018-06-05T02:08:50.841Z,18.19
2018-06-05T02:09:51.568Z,18.18
2018-06-05T02:10:52.284Z,18.11
2018-06-05T02:11:53.010Z,18.20
2018-06-05T02:12:53.722Z,18.08
2018-06-05T02:13:54.436Z,18.15
2018-06-05T02:14:55.149Z,18.18
2018-06-05T02:15:55.876Z,18.18
2018-06-05T02:16:56.589Z,18.16
2018-06-05T02:17:57.303Z,18.15
2018-06-05T02:18:58.017Z,18.11
2018-06-05T02:19:58.729Z,18.15
2018-06-05T02:20:59.454Z,18.15
2018-06-05T02:22:00.168Z,18.10
2018-06-05T02:23:00.880Z,18.13
2018-06-05T02:24:01.597Z,18.04
2018-06-05T02:25:02.308Z,18.13
2018-06-05T02:26:03.021Z,18.22
2018-06-05T02:27:03.735Z,18.15
2018-06-05T02:28:04.446Z,18.08
2018-06-05T02:29:05.173Z,18.10
2018-06-05T02:30:05.899Z,18.08
2018-06-05T02:31:06.613Z,18.10
2018-06-05T02:32:07.327Z,18.10
2018-06-05T02:33:08.041Z,18.05
2018-06-05T02:34:08.756Z,18.08
2018-06-05T02:35:09.471Z,18.10
2018-06-05T02:36:10.182Z,18.07
2018-06-05T02:37:10.906Z,18.01
2018-06-05T02:38:11.621Z,17.98
2018-06-05T02:39:12.344Z,18.08
2018-06-05T02:40:13.058Z,18.04
2018-06-05T02:41:13.769Z,18.04
2018-06-05T02:42:14.484Z,17.98
2018-06-05T02:43:15.196Z,18.13
2018-06-05T02:44:15.913Z,18.01
2018-06-05T02:45:16.634Z,18.08
2018-06-05T02:46:17.347Z,18.05
2018-06-05T02:47:18.074Z,18.05
2018-06-05T02:48:18.789Z,17.87
2018-06-05T02:49:19.513Z,17.86
2018-06-05T02:50:20.226Z,17.90
2018-06-05T02:51:20.950Z,17.98
2018-06-05T02:52:21.665Z,17.98
2018-06-05T02:53:22.378Z,18.00
2018-06-05T02:54:23.093Z,18.00
2018-06-05T02:55:23.806Z,17.97
2018-06-05T02:56:24.524Z,17.94
2018-06-05T02:57:25.244Z,17.87
2018-06-05T02:58:25.959Z,18.00
2018-06-05T02:59:26.669Z,17.90
2018-06-05T03:00:27.396Z,17.98
2018-06-05T03:01:28.137Z,18.00
2018-06-05T03:02:28.846Z,18.00
2018-06-05T03:03:29.567Z,17.87
2018-06-05T03:04:30.282Z,17.83
2018-06-05T03:05:30.993Z,17.92
2018-06-05T03:06:31.707Z,17.94
2018-06-05T03:07:32.436Z,17.82
2018-06-05T03:08:33.154Z,17.83
2018-06-05T03:09:33.867Z,17.78
2018-06-05T03:10:34.584Z,17.80
2018-06-05T03:11:35.300Z,17.85
2018-06-05T03:12:36.016Z,17.78
2018-06-05T03:13:36.730Z,17.92
2018-06-05T03:14:37.445Z,17.86
2018-06-05T03:15:38.159Z,17.85
2018-06-05T03:16:38.873Z,17.83
2018-06-05T03:17:39.588Z,17.86
2018-06-05T03:18:40.313Z,17.89
2018-06-05T03:19:41.028Z,17.86
2018-06-05T03:20:41.744Z,17.86
2018-06-05T03:21:42.459Z,17.86
2018-06-05T03:22:43.188Z,17.86
2018-06-05T03:23:43.964Z,17.83
2018-06-05T03:24:44.630Z,17.85
2018-06-05T03:25:45.344Z,17.86
2018-06-05T03:26:46.059Z,17.74
2018-06-05T03:27:46.784Z,17.74
2018-06-05T03:28:47.497Z,17.83
2018-06-05T03:29:48.211Z,17.68
2018-06-05T03:30:48.926Z,17.79
2018-06-05T03:31:49.640Z,17.79
2018-06-05T03:32:50.354Z,17.76
2018-06-05T03:33:51.088Z,17.74
2018-06-05T03:34:51.808Z,17.76
2018-06-05T03:35:52.537Z,17.70
2018-06-05T03:36:53.251Z,17.79
2018-06-05T03:37:53.982Z,17.74
2018-06-05T03:38:54.695Z,17.72
2018-06-05T03:39:55.412Z,17.76
2018-06-05T03:40:56.144Z,17.72
2018-06-05T03:41:56.868Z,17.71
2018-06-05T03:42:57.582Z,17.74
2018-06-05T03:43:58.294Z,17.71
2018-06-05T03:44:59.008Z,17.64
2018-06-05T03:45:59.723Z,17.65
2018-06-05T03:47:00.441Z,17.65
2018-06-05T03:48:01.150Z,17.60
2018-06-05T03:49:01.880Z,17.70
2018-06-05T03:50:02.597Z,17.63
2018-06-05T03:51:03.312Z,17.64
2018-06-05T03:52:04.040Z,17.68
2018-06-05T03:53:04.767Z,17.70
2018-06-05T03:54:05.495Z,17.65
2018-06-05T03:55:06.212Z,17.64
2018-06-05T03:56:06.937Z,17.63
2018-06-05T03:57:07.665Z,17.68
2018-06-05T03:58:08.396Z,17.60
2018-06-05T03:59:09.113Z,17.59
2018-06-05T04:00:09.828Z,17.59
2018-06-05T04:01:10.545Z,17.59
2018-06-05T04:02:11.271Z,17.56
2018-06-05T04:03:11.985Z,17.60
2018-06-05T04:04:12.714Z,17.60
2018-06-05T04:05:13.431Z,17.64
2018-06-05T04:06:14.148Z,17.76
2018-06-05T04:07:14.877Z,17.63
2018-06-05T04:08:15.593Z,17.65
2018-06-05T04:09:16.322Z,17.68
2018-06-05T04:10:17.041Z,17.63
2018-06-05T04:11:17.758Z,17.67
2018-06-05T04:12:18.476Z,17.65
2018-06-05T04:13:19.192Z,17.82
2018-06-05T04:14:19.907Z,17.68
2018-06-05T04:15:20.623Z,17.68
2018-06-05T04:16:21.351Z,17.71
2018-06-05T04:17:22.068Z,17.67
2018-06-05T04:18:22.793Z,17.70
2018-06-05T04:19:23.502Z,17.78
2018-06-05T04:20:24.233Z,17.71
2018-06-05T04:21:24.951Z,17.78
2018-06-05T04:22:25.668Z,17.65
2018-06-05T04:23:26.385Z,17.67
2018-06-05T04:24:27.100Z,17.67
2018-06-05T04:25:27.818Z,17.70
2018-06-05T04:26:28.535Z,17.65
2018-06-05T04:27:29.254Z,17.60
2018-06-05T04:28:29.980Z,17.60
2018-06-05T04:29:30.695Z,17.67
2018-06-05T04:30:31.422Z,17.60
2018-06-05T04:31:32.139Z,17.67
2018-06-05T04:32:32.856Z,17.64
2018-06-05T04:33:33.572Z,17.67
2018-06-05T04:34:34.307Z,17.65
2018-06-05T04:35:35.024Z,17.67
2018-06-05T04:36:35.744Z,17.71
2018-06-05T04:37:36.472Z,17.67
2018-06-05T04:38:37.187Z,17.59
2018-06-05T04:39:37.905Z,17.52
2018-06-05T04:40:38.636Z,17.51
2018-06-05T04:41:39.389Z,17.48
2018-06-05T04:42:40.112Z,17.46
2018-06-05T04:43:40.824Z,17.39
2018-06-05T04:44:41.541Z,17.36
2018-06-05T04:45:42.256Z,17.42
2018-06-05T04:46:42.979Z,17.39
2018-06-05T04:47:43.698Z,17.34
2018-06-05T04:48:44.409Z,17.33
2018-06-05T04:49:45.127Z,17.39
2018-06-05T04:50:45.843Z,17.34
2018-06-05T04:51:46.560Z,17.34
2018-06-05T04:52:47.280Z,17.34
2018-06-05T04:53:48.006Z,17.33
2018-06-05T04:54:48.733Z,17.41
2018-06-05T04:55:49.449Z,17.38
2018-06-05T04:56:50.170Z,17.38
2018-06-05T04:57:50.896Z,17.33
2018-06-05T04:58:51.612Z,17.33
2018-06-05T04:59:52.328Z,17.34
2018-06-05T05:00:53.063Z,17.33
2018-06-05T05:01:53.779Z,17.31
2018-06-05T05:02:54.498Z,17.34
2018-06-05T05:03:55.242Z,17.39
2018-06-05T05:04:55.966Z,17.38
2018-06-05T05:05:56.685Z,17.33
2018-06-05T05:06:57.406Z,17.38
2018-06-05T05:07:58.123Z,17.38
2018-06-05T05:08:58.842Z,17.38
2018-06-05T05:09:59.570Z,17.39
2018-06-05T05:11:00.289Z,17.31
2018-06-05T05:12:01.006Z,17.34
2018-06-05T05:13:01.725Z,17.34
2018-06-05T05:14:02.444Z,17.33
2018-06-05T05:15:03.162Z,17.29
2018-06-05T05:16:03.880Z,17.38
2018-06-05T05:17:04.608Z,17.34
2018-06-05T05:18:05.327Z,17.34
2018-06-05T05:19:06.069Z,17.31
2018-06-05T05:20:06.771Z,17.42
2018-06-05T05:21:07.489Z,17.39
2018-06-05T05:22:08.206Z,17.36
2018-06-05T05:23:08.924Z,17.51
2018-06-05T05:24:09.641Z,17.48
2018-06-05T05:25:10.363Z,17.39
2018-06-05T05:26:11.078Z,17.41
2018-06-05T05:27:11.807Z,17.38
2018-06-05T05:28:12.526Z,17.39
2018-06-05T05:29:13.248Z,17.39
2018-06-05T05:30:13.961Z,17.38
2018-06-05T05:31:14.691Z,17.44
2018-06-05T05:32:15.410Z,17.41
2018-06-05T05:33:16.140Z,17.41
2018-06-05T05:34:16.857Z,17.41
2018-06-05T05:35:17.575Z,17.45
2018-06-05T05:36:18.295Z,17.45
2018-06-05T05:37:19.027Z,17.52
2018-06-05T05:38:19.748Z,17.41
2018-06-05T05:39:20.464Z,17.42
2018-06-05T05:40:21.193Z,17.57
2018-06-05T05:41:21.915Z,17.48
2018-06-05T05:42:22.648Z,17.41
2018-06-05T05:43:23.364Z,17.41
2018-06-05T05:44:24.082Z,17.41
2018-06-05T05:45:24.800Z,17.51
2018-06-05T05:46:25.520Z,17.56
2018-06-05T05:47:26.248Z,17.51
2018-06-05T05:48:26.969Z,17.44
2018-06-05T05:49:27.689Z,17.51
2018-06-05T05:50:28.406Z,17.45
2018-06-05T05:51:29.124Z,17.44
2018-06-05T05:52:29.843Z,17.46
2018-06-05T05:53:30.561Z,17.41
2018-06-05T05:54:31.306Z,17.44
2018-06-05T05:55:32.020Z,17.48
2018-06-05T05:56:32.732Z,17.48
2018-06-05T05:57:33.447Z,17.48
2018-06-05T05:58:34.165Z,17.48
2018-06-05T05:59:34.895Z,17.46
2018-06-05T06:00:35.611Z,17.49
2018-06-05T06:01:36.333Z,17.46
2018-06-05T06:02:37.050Z,17.52
2018-06-05T06:03:37.779Z,17.51
2018-06-05T06:04:38.501Z,17.56
2018-06-05T06:05:39.231Z,17.57
2018-06-05T06:06:39.949Z,17.59
2018-06-05T06:07:40.670Z,17.65
2018-06-05T06:08:41.391Z,17.71
2018-06-05T06:09:42.117Z,17.68
2018-06-05T06:10:42.849Z,17.67
2018-06-05T06:11:43.567Z,17.54
2018-06-05T06:12:44.285Z,17.67
2018-06-05T06:13:45.014Z,17.60
2018-06-05T06:14:45.732Z,17.63
2018-06-05T06:15:46.449Z,17.70
2018-06-05T06:16:47.168Z,17.68
2018-06-05T06:17:47.887Z,17.64
2018-06-05T06:18:48.608Z,17.65
2018-06-05T06:19:49.336Z,17.70
2018-06-05T06:20:50.054Z,17.79
2018-06-05T06:21:50.780Z,17.83
2018-06-05T06:22:51.499Z,17.78
2018-06-05T06:23:52.218Z,17.78
2018-06-05T06:24:52.949Z,17.80
2018-06-05T06:25:53.685Z,17.85
2018-06-05T06:26:54.419Z,17.83
2018-06-05T06:27:55.128Z,17.89
2018-06-05T06:28:55.846Z,17.85
2018-06-05T06:29:56.565Z,17.87
2018-06-05T06:30:57.283Z,17.90
2018-06-05T06:31:58.001Z,17.86
2018-06-05T06:32:58.727Z,17.87
2018-06-05T06:33:59.439Z,17.97
2018-06-05T06:35:00.169Z,18.01
2018-06-05T06:36:00.888Z,17.98
2018-06-05T06:37:01.610Z,18.00
2018-06-05T06:38:02.337Z,18.05
2018-06-05T06:39:03.054Z,18.11
2018-06-05T06:40:03.776Z,18.05
2018-06-05T06:41:04.548Z,18.01
2018-06-05T06:42:05.269Z,18.04
2018-06-05T06:43:05.984Z,18.07
2018-06-05T06:44:06.714Z,18.00
2018-06-05T06:45:07.433Z,18.05
2018-06-05T06:46:08.163Z,18.01
2018-06-05T06:47:08.893Z,18.05
2018-06-05T06:48:09.613Z,18.10
2018-06-05T06:49:10.334Z,18.03
2018-06-05T06:50:11.051Z,18.08
2018-06-05T06:51:11.770Z,18.13
2018-06-05T06:52:12.499Z,18.20
2018-06-05T06:53:13.221Z,18.15
2018-06-05T06:54:13.953Z,18.20
2018-06-05T06:55:14.669Z,18.18
2018-06-05T06:56:15.386Z,18.18
2018-06-05T06:57:16.109Z,18.11
2018-06-05T06:58:16.823Z,18.18
2018-06-05T06:59:17.543Z,18.15
2018-06-05T07:00:18.263Z,18.15
2018-06-05T07:01:18.994Z,18.04
2018-06-05T07:02:19.713Z,18.13
2018-06-05T07:03:20.431Z,18.15
2018-06-05T07:04:21.160Z,18.07
2018-06-05T07:05:21.878Z,18.10
2018-06-05T07:06:22.598Z,18.15
2018-06-05T07:07:23.317Z,18.15
2018-06-05T07:08:24.038Z,18.11
2018-06-05T07:09:24.757Z,18.16
2018-06-05T07:10:25.475Z,18.08
2018-06-05T07:11:26.194Z,18.19
2018-06-05T07:12:26.914Z,18.13
2018-06-05T07:13:27.632Z,18.00
2018-06-05T07:14:28.350Z,18.04
2018-06-05T07:15:29.084Z,18.00
2018-06-05T07:16:29.814Z,18.01
2018-06-05T07:17:30.532Z,18.00
2018-06-05T07:18:31.251Z,17.79
2018-06-05T07:19:31.969Z,17.82
2018-06-05T07:20:32.692Z,17.70
2018-06-05T07:21:33.417Z,17.67
2018-06-05T07:22:34.135Z,17.74
2018-06-05T07:23:34.852Z,17.82
2018-06-05T07:24:35.584Z,17.83
2018-06-05T07:25:36.302Z,17.89
2018-06-05T07:26:37.022Z,17.90
2018-06-05T07:27:37.750Z,17.98
2018-06-05T07:28:38.469Z,18.10
2018-06-05T07:29:39.188Z,18.05
2018-06-05T07:30:39.907Z,18.07
2018-06-05T07:31:40.626Z,18.00
2018-06-05T07:32:41.344Z,17.94
2018-06-05T07:33:42.063Z,17.83
2018-06-05T07:34:42.794Z,17.89
2018-06-05T07:35:43.528Z,17.90
2018-06-05T07:36:44.244Z,18.01
2018-06-05T07:37:44.964Z,17.95
2018-06-05T07:38:45.686Z,17.89
2018-06-05T07:39:46.404Z,18.05
2018-06-05T07:40:47.136Z,18.04
2018-06-05T07:41:47.858Z,18.08
2018-06-05T07:42:48.590Z,18.13
2018-06-05T07:43:49.321Z,18.10
2018-06-05T07:44:50.042Z,18.20
2018-06-05T07:45:50.773Z,18.20
2018-06-05T07:46:51.493Z,18.28
2018-06-05T07:47:52.212Z,18.26
2018-06-05T07:48:52.942Z,18.31
2018-06-05T07:49:53.683Z,18.29
2018-06-05T07:50:54.393Z,18.44
2018-06-05T07:51:55.113Z,18.50
2018-06-05T07:52:55.846Z,18.50
2018-06-05T07:53:56.566Z,18.45
2018-06-05T07:54:57.284Z,18.47
2018-06-05T07:55:58.015Z,18.49
2018-06-05T07:56:58.745Z,18.49
2018-06-05T07:57:59.477Z,18.41
2018-06-05T07:59:00.198Z,18.45
2018-06-05T08:00:00.919Z,18.58
2018-06-05T08:01:01.640Z,18.43
2018-06-05T08:02:02.360Z,18.47
2018-06-05T08:03:03.081Z,18.44
2018-06-05T08:04:03.814Z,18.53
2018-06-05T08:05:04.544Z,18.58
2018-06-05T08:06:05.264Z,18.50
2018-06-05T08:07:05.986Z,18.50
2018-06-05T08:08:06.706Z,18.62
2018-06-05T08:09:07.427Z,18.52
2018-06-05T08:10:08.146Z,18.55
2018-06-05T08:11:08.866Z,18.56
2018-06-05T08:12:09.588Z,18.75
2018-06-05T08:13:10.307Z,18.65
2018-06-05T08:14:11.040Z,18.66
2018-06-05T08:15:11.761Z,18.78
2018-06-05T08:16:12.480Z,18.78
2018-06-05T08:17:13.211Z,18.84
2018-06-05T08:18:13.931Z,18.80
2018-06-05T08:19:14.654Z,18.78
2018-06-05T08:20:15.387Z,18.92
2018-06-05T08:21:16.108Z,18.90
2018-06-05T08:22:16.828Z,18.81
2018-06-05T08:23:17.561Z,18.77
2018-06-05T08:24:18.282Z,18.73
2018-06-05T08:25:19.001Z,18.77
2018-06-05T08:26:19.721Z,18.80
2018-06-05T08:27:20.443Z,18.77
2018-06-05T08:28:21.161Z,18.73
2018-06-05T08:29:21.893Z,18.81
2018-06-05T08:30:22.613Z,18.80
2018-06-05T08:31:23.332Z,18.77
2018-06-05T08:32:24.064Z,18.73
2018-06-05T08:33:24.785Z,18.75
2018-06-05T08:34:25.504Z,18.75
2018-06-05T08:35:26.225Z,18.78
2018-06-05T08:36:26.951Z,18.65
2018-06-05T08:37:27.665Z,18.71
2018-06-05T08:38:28.388Z,18.71
2018-06-05T08:39:29.104Z,18.80
2018-06-05T08:40:29.825Z,18.89
2018-06-05T08:41:30.545Z,18.86
2018-06-05T08:42:31.265Z,18.81
2018-06-05T08:43:31.987Z,18.74
2018-06-05T08:44:32.717Z,18.78
2018-06-05T08:45:33.443Z,18.84
2018-06-05T08:46:34.170Z,18.92
2018-06-05T08:47:34.904Z,18.95
2018-06-05T08:48:35.621Z,18.98
2018-06-05T08:49:36.351Z,19.12
2018-06-05T08:50:37.071Z,19.15
2018-06-05T08:51:37.789Z,19.12
2018-06-05T08:52:38.511Z,19.21
2018-06-05T08:53:39.232Z,19.15
2018-06-05T08:54:39.952Z,19.07
2018-06-05T08:55:40.677Z,18.75
2018-06-05T08:56:41.395Z,18.75
2018-06-05T08:57:42.116Z,18.73
2018-06-05T08:58:42.838Z,18.77
2018-06-05T08:59:43.562Z,18.77
2018-06-05T09:00:44.291Z,18.80
2018-06-05T09:01:45.012Z,18.83
2018-06-05T09:02:45.731Z,18.98
2018-06-05T09:03:46.452Z,18.98
2018-06-05T09:04:47.173Z,19.07
2018-06-05T09:05:47.896Z,19.08
2018-06-05T09:06:48.628Z,19.04
2018-06-05T09:07:49.350Z,18.92
2018-06-05T09:08:50.085Z,18.74
2018-06-05T09:09:50.806Z,18.73
2018-06-05T09:10:51.531Z,18.78
2018-06-05T09:11:52.246Z,18.81
2018-06-05T09:12:52.976Z,18.96
2018-06-05T09:13:53.700Z,18.96
2018-06-05T09:14:54.422Z,19.04
2018-06-05T09:15:55.143Z,19.07
2018-06-05T09:16:55.862Z,19.07
2018-06-05T09:17:56.583Z,19.08
2018-06-05T09:18:57.308Z,19.18
2018-06-05T09:19:58.027Z,19.15
2018-06-05T09:20:58.756Z,19.19
2018-06-05T09:21:59.477Z,19.18
2018-06-05T09:23:00.198Z,19.29
2018-06-05T09:24:00.918Z,19.04
2018-06-05T09:25:01.641Z,19.12
2018-06-05T09:26:02.360Z,19.14
2018-06-05T09:27:03.080Z,19.09
2018-06-05T09:28:03.804Z,19.11
2018-06-05T09:29:04.534Z,19.09
2018-06-05T09:30:05.244Z,19.11
2018-06-05T09:31:05.965Z,19.04
2018-06-05T09:32:06.684Z,19.07
2018-06-05T09:33:07.406Z,19.14
2018-06-05T09:34:08.125Z,19.12
2018-06-05T09:35:08.844Z,19.08
2018-06-05T09:36:09.578Z,19.18
2018-06-05T09:37:10.298Z,19.11
2018-06-05T09:38:11.029Z,19.16
2018-06-05T09:39:11.749Z,19.22
2018-06-05T09:40:12.482Z,19.27
2018-06-05T09:41:13.201Z,19.29
2018-06-05T09:42:13.940Z,19.33
2018-06-05T09:43:14.666Z,19.24
2018-06-05T09:44:15.386Z,19.31
2018-06-05T09:45:16.112Z,19.31
2018-06-05T09:46:16.828Z,19.31
2018-06-05T09:47:17.548Z,19.36
2018-06-05T09:48:18.267Z,19.36
2018-06-05T09:49:19.000Z,19.47
2018-06-05T09:50:19.722Z,19.51
2018-06-05T09:51:20.442Z,19.48
2018-06-05T09:52:21.245Z,19.55
2018-06-05T09:53:21.885Z,19.59
2018-06-05T09:54:22.605Z,19.55
2018-06-05T09:55:23.340Z,19.52
2018-06-05T09:56:24.061Z,19.64
2018-06-05T09:57:24.779Z,19.63
2018-06-05T09:58:25.698Z,19.58
2018-06-05T09:59:26.229Z,19.63
2018-06-05T10:00:26.952Z,19.70
2018-06-05T10:01:27.674Z,19.63
2018-06-05T10:02:28.395Z,19.67
2018-06-05T10:03:29.127Z,19.71
2018-06-05T10:04:29.848Z,19.67
2018-06-05T10:05:30.569Z,19.73
2018-06-05T10:06:31.290Z,19.81
2018-06-05T10:07:32.021Z,19.71
2018-06-05T10:08:32.744Z,19.59
2018-06-05T10:09:33.477Z,19.70
2018-06-05T10:10:34.199Z,19.62
2018-06-05T10:11:34.933Z,19.47
2018-06-05T10:12:35.654Z,19.44
2018-06-05T10:13:36.375Z,19.18
2018-06-05T10:14:37.095Z,19.31
2018-06-05T10:15:37.829Z,19.39
2018-06-05T10:16:38.548Z,19.49
2018-06-05T10:17:39.271Z,19.66
2018-06-05T10:18:39.992Z,19.70
2018-06-05T10:19:40.726Z,19.82
2018-06-05T10:20:41.448Z,19.86
2018-06-05T10:21:42.178Z,19.76
2018-06-05T10:22:42.900Z,19.84
2018-06-05T10:23:43.633Z,19.94
2018-06-05T10:24:44.354Z,19.95
2018-06-05T10:25:45.095Z,20.00
2018-06-05T10:26:45.807Z,19.95
2018-06-05T10:27:46.546Z,20.04
2018-06-05T10:28:47.260Z,20.09
2018-06-05T10:29:47.980Z,20.09
2018-06-05T10:30:48.701Z,20.13
2018-06-05T10:31:49.427Z,20.19
2018-06-05T10:32:50.144Z,20.13
2018-06-05T10:33:50.866Z,20.22
2018-06-05T10:34:51.676Z,20.25
2018-06-05T10:35:52.313Z,20.28
2018-06-05T10:36:53.035Z,20.32
2018-06-05T10:37:53.756Z,20.22
2018-06-05T10:38:54.479Z,20.25
2018-06-05T10:39:55.203Z,20.31
2018-06-05T10:40:55.924Z,20.40
2018-06-05T10:41:56.657Z,20.39
2018-06-05T10:42:57.389Z,20.37
2018-06-05T10:43:58.126Z,20.55
2018-06-05T10:44:58.849Z,20.60
2018-06-05T10:45:59.569Z,20.62
2018-06-05T10:47:00.289Z,20.70
2018-06-05T10:48:01.011Z,20.74
2018-06-05T10:49:01.749Z,20.77
2018-06-05T10:50:02.467Z,20.80
2018-06-05T10:51:03.189Z,20.77
2018-06-05T10:52:03.911Z,20.75
2018-06-05T10:53:04.631Z,20.80
2018-06-05T10:54:05.353Z,20.84
2018-06-05T10:55:06.077Z,20.99
2018-06-05T10:56:06.798Z,21.02
2018-06-05T10:57:07.519Z,21.00
2018-06-05T10:58:08.246Z,21.11
2018-06-05T10:59:08.976Z,21.05
2018-06-05T11:00:09.696Z,21.09
2018-06-05T11:01:10.429Z,21.15
2018-06-05T11:02:11.162Z,21.09
2018-06-05T11:03:11.883Z,20.97
2018-06-05T11:04:12.605Z,20.92
2018-06-05T11:05:13.328Z,20.82
2018-06-05T11:06:14.065Z,20.96
2018-06-05T11:07:14.776Z,20.92
2018-06-05T11:08:15.500Z,20.69
2018-06-05T11:09:16.232Z,20.67
2018-06-05T11:10:16.956Z,20.69
2018-06-05T11:11:17.677Z,20.69
2018-06-05T11:12:18.399Z,20.74
2018-06-05T11:13:19.126Z,20.67
2018-06-05T11:14:19.849Z,20.60
2018-06-05T11:15:20.586Z,20.84
2018-06-05T11:16:21.309Z,20.92
2018-06-05T11:17:22.038Z,21.07
2018-06-05T11:18:22.787Z,21.15
2018-06-05T11:19:23.499Z,21.25
2018-06-05T11:20:24.222Z,21.40
2018-06-05T11:21:24.949Z,21.57
2018-06-05T11:22:25.672Z,21.66
2018-06-05T11:23:26.396Z,21.72
2018-06-05T11:24:27.122Z,21.79
2018-06-05T11:25:27.848Z,21.87
2018-06-05T11:26:28.582Z,21.83
2018-06-05T11:27:29.317Z,21.92
2018-06-05T11:28:30.054Z,21.79
2018-06-05T11:29:30.779Z,21.82
2018-06-05T11:30:31.500Z,21.72
2018-06-05T11:31:32.225Z,21.80
2018-06-05T11:32:32.965Z,21.91
2018-06-05T11:33:33.688Z,21.83
2018-06-05T11:34:34.410Z,21.83
2018-06-05T11:35:35.137Z,21.87
2018-06-05T11:36:35.880Z,21.95
2018-06-05T11:37:36.615Z,21.91
2018-06-05T11:38:37.342Z,21.99
2018-06-05T11:39:38.068Z,21.93
2018-06-05T11:40:38.795Z,22.02
2018-06-05T11:41:39.520Z,22.13
2018-06-05T11:42:40.246Z,22.10
2018-06-05T11:43:40.972Z,22.10
2018-06-05T11:44:41.697Z,22.20
2018-06-05T11:45:42.422Z,22.20
2018-06-05T11:46:43.198Z,22.20
2018-06-05T11:47:43.869Z,22.17
2018-06-05T11:48:44.596Z,22.14
2018-06-05T11:49:45.339Z,22.25
2018-06-05T11:50:46.065Z,22.25
2018-06-05T11:51:46.792Z,22.23
2018-06-05T11:52:47.521Z,22.32
2018-06-05T11:53:48.261Z,22.29
2018-06-05T11:54:48.991Z,22.28
2018-06-05T11:55:49.716Z,22.26
2018-06-05T11:56:50.446Z,22.38
2018-06-05T11:57:51.174Z,22.36
2018-06-05T11:58:51.915Z,22.60
2018-06-05T11:59:52.645Z,22.73
2018-06-05T12:00:53.403Z,22.73
2018-06-05T12:01:54.108Z,22.81
2018-06-05T12:02:54.838Z,22.99
2018-06-05T12:03:55.566Z,22.93
2018-06-05T12:04:56.293Z,22.93
2018-06-05T12:05:57.021Z,22.93
2018-06-05T12:06:57.748Z,22.93
2018-06-05T12:07:58.489Z,22.90
2018-06-05T12:08:59.218Z,22.91
2018-06-05T12:09:59.947Z,22.91
2018-06-05T12:11:00.677Z,22.88
2018-06-05T12:12:01.404Z,22.83
2018-06-05T12:13:02.131Z,22.85
2018-06-05T12:14:02.861Z,22.87
2018-06-05T12:15:03.591Z,22.90
2018-06-05T12:16:04.318Z,22.91
2018-06-05T12:17:05.045Z,22.87
2018-06-05T12:18:05.775Z,22.66
2018-06-05T12:19:06.499Z,22.75
2018-06-05T12:20:07.226Z,22.66
2018-06-05T12:21:07.953Z,22.53
2018-06-05T12:22:08.691Z,22.43
2018-06-05T12:23:09.420Z,22.51
2018-06-05T12:24:10.157Z,22.38
2018-06-05T12:25:10.883Z,22.47
2018-06-05T12:26:11.658Z,22.53
2018-06-05T12:27:12.365Z,22.50
2018-06-05T12:28:13.100Z,22.45
2018-06-05T12:29:13.828Z,22.48
2018-06-05T12:30:14.554Z,22.51
2018-06-05T12:31:15.282Z,22.41
2018-06-05T12:32:16.007Z,22.33
2018-06-05T12:33:16.743Z,22.26
2018-06-05T12:34:17.468Z,22.20
2018-06-05T12:35:18.208Z,22.33
2018-06-05T12:36:18.943Z,22.35
2018-06-05T12:37:19.675Z,22.33
2018-06-05T12:38:20.398Z,22.17
2018-06-05T12:39:21.127Z,22.23
2018-06-05T12:40:21.880Z,21.98
2018-06-05T12:41:22.575Z,22.13
2018-06-05T12:42:23.315Z,22.00
2018-06-05T12:43:24.040Z,22.13
2018-06-05T12:44:24.766Z,22.11
2018-06-05T12:45:25.491Z,22.14
2018-06-05T12:46:26.230Z,22.10
2018-06-05T12:47:26.964Z,22.17
2018-06-05T12:48:27.683Z,22.15
2018-06-05T12:49:28.409Z,22.15
2018-06-05T12:50:29.138Z,21.91
2018-06-05T12:51:29.864Z,21.80
2018-06-05T12:52:30.590Z,21.80
2018-06-05T12:53:31.316Z,21.82
2018-06-05T12:54:32.042Z,21.75
2018-06-05T12:55:32.779Z,21.80
2018-06-05T12:56:33.505Z,21.80
2018-06-05T12:57:34.242Z,21.66
2018-06-05T12:58:34.968Z,21.69
2018-06-05T12:59:35.692Z,21.67
2018-06-05T13:00:36.430Z,21.66
2018-06-05T13:01:37.155Z,21.72